sensor_id;sensor_type;location;lat;lon;timestamp;P1;durP1;ratioP1;P2;durP2;ratioP2
1829;SDS011;914;48.118;11.600;2023-09-07T00:01:43;4.27;;;2.50;;
1829;SDS011;914;48.118;11.600;2023-09-07T00:04:09;2.63;;;2.43;;
1829;SDS011;914;48.118;11.600;2023-09-07T00:06:35;3.08;;;2.80;;
1829;SDS011;914;48.118;11.600;2023-09-07T00:09:02;3.73;;;3.00;;
1829;SDS011;914;48.118;11.600;2023-09-07T00:11:28;3.00;;;2.80;;
1829;SDS011;914;48.118;11.600;2023-09-07T00:13:54;4.43;;;3.00;;
1829;SDS011;914;48.118;11.600;2023-09-07T00:16:20;3.67;;;2.53;;
1829;SDS011;914;48.118;11.600;2023-09-07T00:18:46;5.15;;;2.72;;
1829;SDS011;914;48.118;11.600;2023-09-07T00:21:11;2.83;;;2.55;;
1829;SDS011;914;48.118;11.600;2023-09-07T00:23:37;2.92;;;2.55;;
1829;SDS011;914;48.118;11.600;2023-09-07T00:26:04;2.37;;;2.20;;
1829;SDS011;914;48.118;11.600;2023-09-07T00:28:30;2.90;;;2.67;;
1829;SDS011;914;48.118;11.600;2023-09-07T00:30:55;2.83;;;2.60;;
1829;SDS011;914;48.118;11.600;2023-09-07T00:33:21;4.77;;;2.83;;
1829;SDS011;914;48.118;11.600;2023-09-07T00:35:47;3.17;;;2.87;;
1829;SDS011;914;48.118;11.600;2023-09-07T00:38:12;6.00;;;3.37;;
1829;SDS011;914;48.118;11.600;2023-09-07T00:40:38;7.27;;;2.80;;
1829;SDS011;914;48.118;11.600;2023-09-07T00:43:07;3.50;;;3.10;;
1829;SDS011;914;48.118;11.600;2023-09-07T00:45:32;3.90;;;3.30;;
1829;SDS011;914;48.118;11.600;2023-09-07T00:47:58;4.60;;;3.30;;
1829;SDS011;914;48.118;11.600;2023-09-07T00:50:24;3.57;;;3.03;;
1829;SDS011;914;48.118;11.600;2023-09-07T00:52:49;4.57;;;3.60;;
1829;SDS011;914;48.118;11.600;2023-09-07T00:55:16;3.53;;;3.23;;
1829;SDS011;914;48.118;11.600;2023-09-07T00:57:42;3.20;;;2.90;;
1829;SDS011;914;48.118;11.600;2023-09-07T01:00:08;4.00;;;3.27;;
1829;SDS011;914;48.118;11.600;2023-09-07T01:02:34;3.43;;;3.13;;
1829;SDS011;914;48.118;11.600;2023-09-07T01:05:01;3.30;;;3.00;;
1829;SDS011;914;48.118;11.600;2023-09-07T01:07:31;3.37;;;3.10;;
1829;SDS011;914;48.118;11.600;2023-09-07T01:10:02;4.37;;;3.20;;
1829;SDS011;914;48.118;11.600;2023-09-07T01:12:29;3.87;;;3.40;;
1829;SDS011;914;48.118;11.600;2023-09-07T01:14:55;3.40;;;3.00;;
1829;SDS011;914;48.118;11.600;2023-09-07T01:17:21;4.63;;;3.50;;
1829;SDS011;914;48.118;11.600;2023-09-07T01:19:50;3.53;;;3.00;;
1829;SDS011;914;48.118;11.600;2023-09-07T01:22:20;3.53;;;3.20;;
1829;SDS011;914;48.118;11.600;2023-09-07T01:24:50;3.63;;;3.27;;
1829;SDS011;914;48.118;11.600;2023-09-07T01:27:17;3.23;;;2.93;;
1829;SDS011;914;48.118;11.600;2023-09-07T01:29:43;3.07;;;2.77;;
1829;SDS011;914;48.118;11.600;2023-09-07T01:32:09;3.20;;;2.90;;
1829;SDS011;914;48.118;11.600;2023-09-07T01:34:35;3.47;;;2.90;;
1829;SDS011;914;48.118;11.600;2023-09-07T01:37:02;3.20;;;2.90;;
1829;SDS011;914;48.118;11.600;2023-09-07T01:39:27;3.83;;;3.40;;
1829;SDS011;914;48.118;11.600;2023-09-07T01:41:53;3.33;;;3.03;;
1829;SDS011;914;48.118;11.600;2023-09-07T01:44:19;3.30;;;3.00;;
1829;SDS011;914;48.118;11.600;2023-09-07T01:46:44;5.20;;;2.50;;
1829;SDS011;914;48.118;11.600;2023-09-07T01:49:10;3.40;;;2.60;;
1829;SDS011;914;48.118;11.600;2023-09-07T01:51:36;2.90;;;2.60;;
1829;SDS011;914;48.118;11.600;2023-09-07T01:54:01;3.30;;;3.00;;
1829;SDS011;914;48.118;11.600;2023-09-07T01:56:27;3.33;;;3.03;;
1829;SDS011;914;48.118;11.600;2023-09-07T01:58:53;4.37;;;2.70;;
1829;SDS011;914;48.118;11.600;2023-09-07T02:01:25;3.57;;;3.27;;
1829;SDS011;914;48.118;11.600;2023-09-07T02:03:54;3.47;;;3.17;;
1829;SDS011;914;48.118;11.600;2023-09-07T02:06:20;3.13;;;2.83;;
1829;SDS011;914;48.118;11.600;2023-09-07T02:08:46;3.50;;;3.20;;
1829;SDS011;914;48.118;11.600;2023-09-07T02:11:11;3.50;;;3.20;;
1829;SDS011;914;48.118;11.600;2023-09-07T02:13:38;3.53;;;2.80;;
1829;SDS011;914;48.118;11.600;2023-09-07T02:16:07;3.73;;;3.43;;
1829;SDS011;914;48.118;11.600;2023-09-07T02:18:32;3.33;;;2.73;;
1829;SDS011;914;48.118;11.600;2023-09-07T02:21:04;3.43;;;3.13;;
1829;SDS011;914;48.118;11.600;2023-09-07T02:23:31;6.73;;;2.97;;
1829;SDS011;914;48.118;11.600;2023-09-07T02:25:57;3.20;;;2.90;;
1829;SDS011;914;48.118;11.600;2023-09-07T02:28:23;3.50;;;2.90;;
1829;SDS011;914;48.118;11.600;2023-09-07T02:30:50;3.37;;;3.07;;
1829;SDS011;914;48.118;11.600;2023-09-07T02:33:18;4.13;;;2.63;;
1829;SDS011;914;48.118;11.600;2023-09-07T02:35:44;3.03;;;2.73;;
1829;SDS011;914;48.118;11.600;2023-09-07T02:38:10;3.10;;;2.80;;
1829;SDS011;914;48.118;11.600;2023-09-07T02:40:42;5.20;;;2.97;;
1829;SDS011;914;48.118;11.600;2023-09-07T02:43:09;2.80;;;2.60;;
1829;SDS011;914;48.118;11.600;2023-09-07T02:45:35;3.00;;;2.70;;
1829;SDS011;914;48.118;11.600;2023-09-07T02:48:02;3.73;;;3.10;;
1829;SDS011;914;48.118;11.600;2023-09-07T02:50:34;3.40;;;3.10;;
1829;SDS011;914;48.118;11.600;2023-09-07T02:53:00;2.97;;;2.67;;
1829;SDS011;914;48.118;11.600;2023-09-07T02:55:26;5.37;;;2.93;;
1829;SDS011;914;48.118;11.600;2023-09-07T02:57:56;2.97;;;2.77;;
1829;SDS011;914;48.118;11.600;2023-09-07T03:00:22;4.23;;;2.63;;
1829;SDS011;914;48.118;11.600;2023-09-07T03:02:48;3.40;;;3.10;;
1829;SDS011;914;48.118;11.600;2023-09-07T03:05:15;3.07;;;2.80;;
1829;SDS011;914;48.118;11.600;2023-09-07T03:07:41;3.60;;;3.30;;
1829;SDS011;914;48.118;11.600;2023-09-07T03:10:06;2.97;;;2.63;;
1829;SDS011;914;48.118;11.600;2023-09-07T03:12:33;4.20;;;3.30;;
1829;SDS011;914;48.118;11.600;2023-09-07T03:14:59;4.10;;;3.20;;
1829;SDS011;914;48.118;11.600;2023-09-07T03:17:31;3.60;;;2.90;;
1829;SDS011;914;48.118;11.600;2023-09-07T03:19:56;3.20;;;2.90;;
1829;SDS011;914;48.118;11.600;2023-09-07T03:22:23;4.63;;;3.03;;
1829;SDS011;914;48.118;11.600;2023-09-07T03:24:52;3.60;;;3.10;;
1829;SDS011;914;48.118;11.600;2023-09-07T03:27:17;3.60;;;3.30;;
1829;SDS011;914;48.118;11.600;2023-09-07T03:29:44;3.13;;;2.87;;
1829;SDS011;914;48.118;11.600;2023-09-07T03:32:10;3.27;;;2.90;;
1829;SDS011;914;48.118;11.600;2023-09-07T03:34:35;4.57;;;3.37;;
1829;SDS011;914;48.118;11.600;2023-09-07T03:37:01;3.30;;;3.00;;
1829;SDS011;914;48.118;11.600;2023-09-07T03:39:27;4.83;;;3.00;;
1829;SDS011;914;48.118;11.600;2023-09-07T03:41:53;3.67;;;3.07;;
1829;SDS011;914;48.118;11.600;2023-09-07T03:44:19;3.37;;;3.07;;
1829;SDS011;914;48.118;11.600;2023-09-07T03:46:44;3.50;;;3.20;;
1829;SDS011;914;48.118;11.600;2023-09-07T03:49:10;4.30;;;3.20;;
1829;SDS011;914;48.118;11.600;2023-09-07T03:51:36;3.23;;;2.93;;
1829;SDS011;914;48.118;11.600;2023-09-07T03:54:02;3.03;;;2.73;;
1829;SDS011;914;48.118;11.600;2023-09-07T03:56:28;3.03;;;2.73;;
1829;SDS011;914;48.118;11.600;2023-09-07T03:58:54;6.53;;;3.20;;
1829;SDS011;914;48.118;11.600;2023-09-07T04:01:19;8.03;;;2.53;;
1829;SDS011;914;48.118;11.600;2023-09-07T04:03:45;5.30;;;2.63;;
1829;SDS011;914;48.118;11.600;2023-09-07T04:06:10;3.67;;;3.10;;
1829;SDS011;914;48.118;11.600;2023-09-07T04:08:36;3.13;;;2.83;;
1829;SDS011;914;48.118;11.600;2023-09-07T04:11:05;6.13;;;3.03;;
1829;SDS011;914;48.118;11.600;2023-09-07T04:13:31;3.17;;;2.87;;
1829;SDS011;914;48.118;11.600;2023-09-07T04:15:57;3.10;;;2.90;;
1829;SDS011;914;48.118;11.600;2023-09-07T04:18:23;3.70;;;3.13;;
1829;SDS011;914;48.118;11.600;2023-09-07T04:20:49;3.10;;;2.80;;
1829;SDS011;914;48.118;11.600;2023-09-07T04:23:14;3.03;;;2.70;;
1829;SDS011;914;48.118;11.600;2023-09-07T04:25:40;3.20;;;2.90;;
1829;SDS011;914;48.118;11.600;2023-09-07T04:28:06;3.00;;;2.70;;
1829;SDS011;914;48.118;11.600;2023-09-07T04:30:39;2.73;;;2.53;;
1829;SDS011;914;48.118;11.600;2023-09-07T04:33:05;3.03;;;2.70;;
1829;SDS011;914;48.118;11.600;2023-09-07T04:35:32;3.77;;;3.30;;
1829;SDS011;914;48.118;11.600;2023-09-07T04:37:58;2.70;;;2.50;;
1829;SDS011;914;48.118;11.600;2023-09-07T04:40:24;5.43;;;3.00;;
1829;SDS011;914;48.118;11.600;2023-09-07T04:42:50;5.80;;;2.90;;
1829;SDS011;914;48.118;11.600;2023-09-07T04:45:16;4.43;;;3.47;;
1829;SDS011;914;48.118;11.600;2023-09-07T04:47:42;3.47;;;3.17;;
1829;SDS011;914;48.118;11.600;2023-09-07T04:50:08;3.50;;;3.17;;
1829;SDS011;914;48.118;11.600;2023-09-07T04:52:34;2.60;;;2.40;;
1829;SDS011;914;48.118;11.600;2023-09-07T04:55:00;3.60;;;3.30;;
1829;SDS011;914;48.118;11.600;2023-09-07T04:57:26;3.00;;;2.80;;
1829;SDS011;914;48.118;11.600;2023-09-07T04:59:51;3.80;;;3.20;;
1829;SDS011;914;48.118;11.600;2023-09-07T05:02:17;3.37;;;3.03;;
1829;SDS011;914;48.118;11.600;2023-09-07T05:04:42;5.17;;;2.93;;
1829;SDS011;914;48.118;11.600;2023-09-07T05:07:09;3.33;;;3.00;;
1829;SDS011;914;48.118;11.600;2023-09-07T05:09:34;3.17;;;2.73;;
1829;SDS011;914;48.118;11.600;2023-09-07T05:12:00;3.63;;;2.73;;
1829;SDS011;914;48.118;11.600;2023-09-07T05:14:25;2.97;;;2.67;;
1829;SDS011;914;48.118;11.600;2023-09-07T05:16:51;5.30;;;2.87;;
1829;SDS011;914;48.118;11.600;2023-09-07T05:19:17;4.40;;;2.93;;
1829;SDS011;914;48.118;11.600;2023-09-07T05:21:43;2.77;;;2.57;;
1829;SDS011;914;48.118;11.600;2023-09-07T05:24:09;3.17;;;2.73;;
1829;SDS011;914;48.118;11.600;2023-09-07T05:26:34;2.93;;;2.63;;
1829;SDS011;914;48.118;11.600;2023-09-07T05:29:00;3.63;;;2.63;;
1829;SDS011;914;48.118;11.600;2023-09-07T05:31:26;4.67;;;2.60;;
1829;SDS011;914;48.118;11.600;2023-09-07T05:33:51;3.80;;;3.13;;
1829;SDS011;914;48.118;11.600;2023-09-07T05:36:17;2.97;;;2.73;;
1829;SDS011;914;48.118;11.600;2023-09-07T05:38:43;3.20;;;2.90;;
1829;SDS011;914;48.118;11.600;2023-09-07T05:41:08;3.63;;;3.10;;
1829;SDS011;914;48.118;11.600;2023-09-07T05:43:34;2.90;;;2.67;;
1829;SDS011;914;48.118;11.600;2023-09-07T05:46:00;5.93;;;3.07;;
1829;SDS011;914;48.118;11.600;2023-09-07T05:48:26;3.43;;;3.13;;
1829;SDS011;914;48.118;11.600;2023-09-07T05:50:51;3.13;;;2.80;;
1829;SDS011;914;48.118;11.600;2023-09-07T05:53:18;6.10;;;3.23;;
1829;SDS011;914;48.118;11.600;2023-09-07T05:55:45;7.67;;;2.93;;
1829;SDS011;914;48.118;11.600;2023-09-07T05:58:12;3.50;;;3.20;;
1829;SDS011;914;48.118;11.600;2023-09-07T06:00:38;4.10;;;3.60;;
1829;SDS011;914;48.118;11.600;2023-09-07T06:03:05;5.60;;;3.30;;
1829;SDS011;914;48.118;11.600;2023-09-07T06:05:33;5.97;;;3.47;;
1829;SDS011;914;48.118;11.600;2023-09-07T06:08:00;4.17;;;3.70;;
1829;SDS011;914;48.118;11.600;2023-09-07T06:10:27;5.57;;;3.43;;
1829;SDS011;914;48.118;11.600;2023-09-07T06:12:54;4.90;;;4.00;;
1829;SDS011;914;48.118;11.600;2023-09-07T06:15:20;7.03;;;3.97;;
1829;SDS011;914;48.118;11.600;2023-09-07T06:17:45;4.60;;;3.93;;
1829;SDS011;914;48.118;11.600;2023-09-07T06:20:11;5.03;;;4.13;;
1829;SDS011;914;48.118;11.600;2023-09-07T06:22:36;4.37;;;3.93;;
1829;SDS011;914;48.118;11.600;2023-09-07T06:25:02;5.83;;;4.03;;
1829;SDS011;914;48.118;11.600;2023-09-07T06:27:28;4.40;;;3.80;;
1829;SDS011;914;48.118;11.600;2023-09-07T06:29:53;4.27;;;3.67;;
1829;SDS011;914;48.118;11.600;2023-09-07T06:32:19;4.50;;;4.07;;
1829;SDS011;914;48.118;11.600;2023-09-07T06:34:45;6.60;;;3.87;;
1829;SDS011;914;48.118;11.600;2023-09-07T06:37:11;6.67;;;5.07;;
1829;SDS011;914;48.118;11.600;2023-09-07T06:39:36;5.33;;;4.53;;
1829;SDS011;914;48.118;11.600;2023-09-07T06:42:02;4.53;;;4.13;;
1829;SDS011;914;48.118;11.600;2023-09-07T06:44:29;6.50;;;4.40;;
1829;SDS011;914;48.118;11.600;2023-09-07T06:46:54;5.60;;;4.67;;
1829;SDS011;914;48.118;11.600;2023-09-07T06:49:21;5.40;;;4.90;;
1829;SDS011;914;48.118;11.600;2023-09-07T06:51:47;5.53;;;4.07;;
1829;SDS011;914;48.118;11.600;2023-09-07T06:54:12;5.23;;;4.70;;
1829;SDS011;914;48.118;11.600;2023-09-07T06:56:38;5.22;;;4.72;;
1829;SDS011;914;48.118;11.600;2023-09-07T06:59:04;6.95;;;4.80;;
1829;SDS011;914;48.118;11.600;2023-09-07T07:01:30;5.50;;;4.70;;
1829;SDS011;914;48.118;11.600;2023-09-07T07:03:56;6.07;;;4.77;;
1829;SDS011;914;48.118;11.600;2023-09-07T07:06:22;5.70;;;4.78;;
1829;SDS011;914;48.118;11.600;2023-09-07T07:08:48;11.10;;;4.43;;
1829;SDS011;914;48.118;11.600;2023-09-07T07:11:14;4.60;;;4.13;;
1829;SDS011;914;48.118;11.600;2023-09-07T07:13:39;8.90;;;4.53;;
1829;SDS011;914;48.118;11.600;2023-09-07T07:16:05;4.32;;;3.92;;
1829;SDS011;914;48.118;11.600;2023-09-07T07:18:31;5.35;;;4.80;;
1829;SDS011;914;48.118;11.600;2023-09-07T07:20:57;6.70;;;4.65;;
1829;SDS011;914;48.118;11.600;2023-09-07T07:23:22;6.05;;;4.55;;
1829;SDS011;914;48.118;11.600;2023-09-07T07:25:48;5.45;;;4.28;;
1829;SDS011;914;48.118;11.600;2023-09-07T07:28:14;4.93;;;4.20;;
1829;SDS011;914;48.118;11.600;2023-09-07T07:30:39;7.32;;;5.00;;
1829;SDS011;914;48.118;11.600;2023-09-07T07:33:05;5.78;;;4.85;;
1829;SDS011;914;48.118;11.600;2023-09-07T07:35:32;5.30;;;4.80;;
1829;SDS011;914;48.118;11.600;2023-09-07T07:38:00;4.97;;;4.32;;
1829;SDS011;914;48.118;11.600;2023-09-07T07:40:26;5.85;;;4.78;;
1829;SDS011;914;48.118;11.600;2023-09-07T07:42:52;5.32;;;4.82;;
1829;SDS011;914;48.118;11.600;2023-09-07T07:45:18;4.78;;;4.10;;
1829;SDS011;914;48.118;11.600;2023-09-07T07:47:50;6.10;;;4.93;;
1829;SDS011;914;48.118;11.600;2023-09-07T07:50:16;7.50;;;4.78;;
1829;SDS011;914;48.118;11.600;2023-09-07T07:52:42;4.85;;;4.22;;
1829;SDS011;914;48.118;11.600;2023-09-07T07:55:09;4.90;;;4.25;;
1829;SDS011;914;48.118;11.600;2023-09-07T07:57:35;5.28;;;4.03;;
1829;SDS011;914;48.118;11.600;2023-09-07T08:00:00;6.20;;;4.13;;
1829;SDS011;914;48.118;11.600;2023-09-07T08:02:28;6.03;;;4.25;;
1829;SDS011;914;48.118;11.600;2023-09-07T08:04:54;5.93;;;4.05;;
1829;SDS011;914;48.118;11.600;2023-09-07T08:07:19;4.05;;;3.65;;
1829;SDS011;914;48.118;11.600;2023-09-07T08:09:45;4.65;;;4.25;;
1829;SDS011;914;48.118;11.600;2023-09-07T08:12:10;6.10;;;3.78;;
1829;SDS011;914;48.118;11.600;2023-09-07T08:14:36;5.25;;;4.30;;
1829;SDS011;914;48.118;11.600;2023-09-07T08:17:01;4.65;;;3.80;;
1829;SDS011;914;48.118;11.600;2023-09-07T08:19:27;4.47;;;3.85;;
1829;SDS011;914;48.118;11.600;2023-09-07T08:21:54;6.55;;;4.65;;
1829;SDS011;914;48.118;11.600;2023-09-07T08:24:20;3.95;;;3.55;;
1829;SDS011;914;48.118;11.600;2023-09-07T08:26:45;4.90;;;3.50;;
1829;SDS011;914;48.118;11.600;2023-09-07T08:29:16;3.72;;;3.40;;
1829;SDS011;914;48.118;11.600;2023-09-07T08:31:42;4.07;;;3.47;;
1829;SDS011;914;48.118;11.600;2023-09-07T08:34:10;3.35;;;3.05;;
1829;SDS011;914;48.118;11.600;2023-09-07T08:36:40;3.47;;;3.17;;
1829;SDS011;914;48.118;11.600;2023-09-07T08:39:06;6.47;;;4.22;;
1829;SDS011;914;48.118;11.600;2023-09-07T08:41:38;4.15;;;3.00;;
1829;SDS011;914;48.118;11.600;2023-09-07T08:44:18;3.70;;;3.40;;
1829;SDS011;914;48.118;11.600;2023-09-07T08:46:49;3.53;;;3.22;;
1829;SDS011;914;48.118;11.600;2023-09-07T08:49:15;4.25;;;3.58;;
1829;SDS011;914;48.118;11.600;2023-09-07T08:51:44;5.30;;;3.70;;
1829;SDS011;914;48.118;11.600;2023-09-07T08:54:10;4.32;;;3.05;;
1829;SDS011;914;48.118;11.600;2023-09-07T08:56:37;4.25;;;3.53;;
1829;SDS011;914;48.118;11.600;2023-09-07T08:59:03;4.00;;;3.58;;
1829;SDS011;914;48.118;11.600;2023-09-07T09:01:30;3.75;;;3.33;;
1829;SDS011;914;48.118;11.600;2023-09-07T09:03:58;3.63;;;3.33;;
1829;SDS011;914;48.118;11.600;2023-09-07T09:06:24;3.60;;;3.30;;
1829;SDS011;914;48.118;11.600;2023-09-07T09:08:54;5.05;;;3.40;;
1829;SDS011;914;48.118;11.600;2023-09-07T09:11:21;3.65;;;3.35;;
1829;SDS011;914;48.118;11.600;2023-09-07T09:13:48;4.78;;;4.05;;
1829;SDS011;914;48.118;11.600;2023-09-07T09:16:15;3.65;;;3.25;;
1829;SDS011;914;48.118;11.600;2023-09-07T09:18:48;3.83;;;3.40;;
1829;SDS011;914;48.118;11.600;2023-09-07T09:21:22;3.50;;;3.20;;
1829;SDS011;914;48.118;11.600;2023-09-07T09:23:49;3.90;;;3.45;;
1829;SDS011;914;48.118;11.600;2023-09-07T09:26:17;6.00;;;3.67;;
1829;SDS011;914;48.118;11.600;2023-09-07T09:28:43;3.80;;;3.50;;
1829;SDS011;914;48.118;11.600;2023-09-07T09:31:12;5.13;;;3.42;;
1829;SDS011;914;48.118;11.600;2023-09-07T09:33:42;3.33;;;3.03;;
1829;SDS011;914;48.118;11.600;2023-09-07T09:36:12;4.18;;;3.30;;
1829;SDS011;914;48.118;11.600;2023-09-07T09:38:38;4.20;;;3.40;;
1829;SDS011;914;48.118;11.600;2023-09-07T09:41:06;3.65;;;3.35;;
1829;SDS011;914;48.118;11.600;2023-09-07T09:43:32;6.20;;;3.47;;
1829;SDS011;914;48.118;11.600;2023-09-07T09:45:58;3.88;;;3.47;;
1829;SDS011;914;48.118;11.600;2023-09-07T09:48:25;4.38;;;3.97;;
1829;SDS011;914;48.118;11.600;2023-09-07T09:50:53;3.58;;;3.28;;
1829;SDS011;914;48.118;11.600;2023-09-07T09:53:18;6.93;;;3.13;;
1829;SDS011;914;48.118;11.600;2023-09-07T09:55:46;3.90;;;3.50;;
1829;SDS011;914;48.118;11.600;2023-09-07T09:58:17;4.15;;;3.60;;
1829;SDS011;914;48.118;11.600;2023-09-07T10:00:43;3.75;;;3.38;;
1829;SDS011;914;48.118;11.600;2023-09-07T10:03:34;3.45;;;3.15;;
1829;SDS011;914;48.118;11.600;2023-09-07T10:06:22;3.88;;;3.20;;
1829;SDS011;914;48.118;11.600;2023-09-07T10:08:59;4.60;;;3.25;;
1829;SDS011;914;48.118;11.600;2023-09-07T10:11:30;3.47;;;3.17;;
1829;SDS011;914;48.118;11.600;2023-09-07T10:14:01;3.83;;;3.53;;
1829;SDS011;914;48.118;11.600;2023-09-07T10:16:50;4.00;;;3.33;;
1829;SDS011;914;48.118;11.600;2023-09-07T10:19:24;4.03;;;3.63;;
1829;SDS011;914;48.118;11.600;2023-09-07T10:21:54;4.32;;;3.92;;
1829;SDS011;914;48.118;11.600;2023-09-07T10:27:03;4.63;;;3.47;;
1829;SDS011;914;48.118;11.600;2023-09-07T10:29:40;5.55;;;3.78;;
1829;SDS011;914;48.118;11.600;2023-09-07T10:32:11;4.80;;;3.30;;
1829;SDS011;914;48.118;11.600;2023-09-07T10:34:39;3.33;;;2.97;;
1829;SDS011;914;48.118;11.600;2023-09-07T10:37:09;4.55;;;3.28;;
1829;SDS011;914;48.118;11.600;2023-09-07T10:39:38;3.75;;;3.45;;
1829;SDS011;914;48.118;11.600;2023-09-07T10:42:08;7.97;;;3.38;;
1829;SDS011;914;48.118;11.600;2023-09-07T10:44:33;3.75;;;3.00;;
1829;SDS011;914;48.118;11.600;2023-09-07T10:46:59;3.05;;;2.83;;
1829;SDS011;914;48.118;11.600;2023-09-07T10:49:25;4.47;;;3.50;;
1829;SDS011;914;48.118;11.600;2023-09-07T10:51:51;4.80;;;3.35;;
1829;SDS011;914;48.118;11.600;2023-09-07T10:54:17;3.63;;;3.20;;
1829;SDS011;914;48.118;11.600;2023-09-07T10:56:48;4.47;;;3.28;;
1829;SDS011;914;48.118;11.600;2023-09-07T10:59:15;3.38;;;3.08;;
1829;SDS011;914;48.118;11.600;2023-09-07T11:01:41;3.17;;;2.85;;
1829;SDS011;914;48.118;11.600;2023-09-07T11:04:09;3.42;;;3.13;;
1829;SDS011;914;48.118;11.600;2023-09-07T11:06:36;3.53;;;2.75;;
1829;SDS011;914;48.118;11.600;2023-09-07T11:09:03;3.65;;;3.35;;
1829;SDS011;914;48.118;11.600;2023-09-07T11:11:31;8.75;;;3.70;;
1829;SDS011;914;48.118;11.600;2023-09-07T11:13:58;3.55;;;3.25;;
1829;SDS011;914;48.118;11.600;2023-09-07T11:16:25;4.03;;;3.50;;
1829;SDS011;914;48.118;11.600;2023-09-07T11:18:52;4.15;;;3.22;;
1829;SDS011;914;48.118;11.600;2023-09-07T11:21:19;3.75;;;3.35;;
1829;SDS011;914;48.118;11.600;2023-09-07T11:23:46;3.60;;;3.30;;
1829;SDS011;914;48.118;11.600;2023-09-07T11:26:11;2.72;;;2.47;;
1829;SDS011;914;48.118;11.600;2023-09-07T11:28:38;3.10;;;2.90;;
1829;SDS011;914;48.118;11.600;2023-09-07T11:31:03;3.20;;;2.90;;
1829;SDS011;914;48.118;11.600;2023-09-07T11:33:32;4.30;;;3.30;;
1829;SDS011;914;48.118;11.600;2023-09-07T11:35:58;3.22;;;2.85;;
1829;SDS011;914;48.118;11.600;2023-09-07T11:38:28;3.47;;;2.80;;
1829;SDS011;914;48.118;11.600;2023-09-07T11:40:59;4.18;;;3.08;;
1829;SDS011;914;48.118;11.600;2023-09-07T11:43:25;2.83;;;2.63;;
1829;SDS011;914;48.118;11.600;2023-09-07T11:45:51;5.05;;;3.00;;
1829;SDS011;914;48.118;11.600;2023-09-07T11:48:16;4.47;;;3.10;;
1829;SDS011;914;48.118;11.600;2023-09-07T11:50:42;6.00;;;3.00;;
1829;SDS011;914;48.118;11.600;2023-09-07T11:53:08;2.70;;;2.50;;
1829;SDS011;914;48.118;11.600;2023-09-07T11:55:34;3.90;;;3.25;;
1829;SDS011;914;48.118;11.600;2023-09-07T11:58:00;3.10;;;2.80;;
1829;SDS011;914;48.118;11.600;2023-09-07T12:00:27;5.35;;;3.22;;
1829;SDS011;914;48.118;11.600;2023-09-07T12:02:53;3.45;;;3.00;;
1829;SDS011;914;48.118;11.600;2023-09-07T12:05:18;3.67;;;3.10;;
1829;SDS011;914;48.118;11.600;2023-09-07T12:07:44;5.53;;;3.10;;
1829;SDS011;914;48.118;11.600;2023-09-07T12:10:10;3.53;;;3.05;;
1829;SDS011;914;48.118;11.600;2023-09-07T12:12:38;3.22;;;2.92;;
1829;SDS011;914;48.118;11.600;2023-09-07T12:15:07;3.53;;;2.90;;
1829;SDS011;914;48.118;11.600;2023-09-07T12:17:33;3.10;;;2.90;;
1829;SDS011;914;48.118;11.600;2023-09-07T12:20:00;2.85;;;2.65;;
1829;SDS011;914;48.118;11.600;2023-09-07T12:22:26;3.97;;;2.83;;
1829;SDS011;914;48.118;11.600;2023-09-07T12:24:52;3.13;;;2.75;;
1829;SDS011;914;48.118;11.600;2023-09-07T12:27:18;3.60;;;2.97;;
1829;SDS011;914;48.118;11.600;2023-09-07T12:29:44;2.65;;;2.45;;
1829;SDS011;914;48.118;11.600;2023-09-07T12:32:10;4.07;;;2.95;;
1829;SDS011;914;48.118;11.600;2023-09-07T12:34:36;5.20;;;2.88;;
1829;SDS011;914;48.118;11.600;2023-09-07T12:37:02;4.10;;;2.70;;
1829;SDS011;914;48.118;11.600;2023-09-07T12:39:30;3.17;;;2.88;;
1829;SDS011;914;48.118;11.600;2023-09-07T12:41:57;4.65;;;2.80;;
1829;SDS011;914;48.118;11.600;2023-09-07T12:44:22;3.30;;;3.00;;
1829;SDS011;914;48.118;11.600;2023-09-07T12:46:48;2.97;;;2.78;;
1829;SDS011;914;48.118;11.600;2023-09-07T12:49:14;5.80;;;2.97;;
1829;SDS011;914;48.118;11.600;2023-09-07T12:51:40;6.00;;;2.80;;
1829;SDS011;914;48.118;11.600;2023-09-07T12:54:06;3.20;;;2.88;;
1829;SDS011;914;48.118;11.600;2023-09-07T12:56:32;3.05;;;2.83;;
1829;SDS011;914;48.118;11.600;2023-09-07T12:58:58;7.63;;;2.83;;
1829;SDS011;914;48.118;11.600;2023-09-07T13:01:25;4.70;;;2.63;;
1829;SDS011;914;48.118;11.600;2023-09-07T13:03:51;2.83;;;2.63;;
1829;SDS011;914;48.118;11.600;2023-09-07T13:06:16;2.90;;;2.70;;
1829;SDS011;914;48.118;11.600;2023-09-07T13:08:43;2.83;;;2.63;;
1829;SDS011;914;48.118;11.600;2023-09-07T13:11:10;3.03;;;2.33;;
1829;SDS011;914;48.118;11.600;2023-09-07T13:13:36;3.03;;;2.83;;
1829;SDS011;914;48.118;11.600;2023-09-07T13:16:02;2.90;;;2.70;;
1829;SDS011;914;48.118;11.600;2023-09-07T13:18:27;3.30;;;3.00;;
1829;SDS011;914;48.118;11.600;2023-09-07T13:20:53;4.30;;;2.45;;
1829;SDS011;914;48.118;11.600;2023-09-07T13:23:25;3.13;;;2.83;;
1829;SDS011;914;48.118;11.600;2023-09-07T13:25:51;2.85;;;2.65;;
1829;SDS011;914;48.118;11.600;2023-09-07T13:28:17;3.42;;;2.70;;
1829;SDS011;914;48.118;11.600;2023-09-07T13:30:42;2.60;;;2.40;;
1829;SDS011;914;48.118;11.600;2023-09-07T13:33:08;3.15;;;2.83;;
1829;SDS011;914;48.118;11.600;2023-09-07T13:35:34;2.85;;;2.63;;
1829;SDS011;914;48.118;11.600;2023-09-07T13:37:59;3.22;;;2.92;;
1829;SDS011;914;48.118;11.600;2023-09-07T13:40:25;4.95;;;3.05;;
1829;SDS011;914;48.118;11.600;2023-09-07T13:42:54;3.00;;;2.58;;
1829;SDS011;914;48.118;11.600;2023-09-07T13:45:21;3.00;;;2.70;;
1829;SDS011;914;48.118;11.600;2023-09-07T13:47:47;2.92;;;2.47;;
1829;SDS011;914;48.118;11.600;2023-09-07T13:50:13;2.50;;;2.30;;
1829;SDS011;914;48.118;11.600;2023-09-07T13:52:39;3.80;;;2.67;;
1829;SDS011;914;48.118;11.600;2023-09-07T13:55:05;2.60;;;2.40;;
1829;SDS011;914;48.118;11.600;2023-09-07T13:57:32;2.55;;;2.33;;
1829;SDS011;914;48.118;11.600;2023-09-07T13:59:58;5.40;;;2.70;;
1829;SDS011;914;48.118;11.600;2023-09-07T14:02:23;3.60;;;2.50;;
1829;SDS011;914;48.118;11.600;2023-09-07T14:04:49;3.88;;;2.50;;
1829;SDS011;914;48.118;11.600;2023-09-07T14:07:15;2.30;;;2.15;;
1829;SDS011;914;48.118;11.600;2023-09-07T14:09:41;2.42;;;2.22;;
1829;SDS011;914;48.118;11.600;2023-09-07T14:12:06;2.97;;;2.20;;
1829;SDS011;914;48.118;11.600;2023-09-07T14:14:32;2.67;;;2.45;;
1829;SDS011;914;48.118;11.600;2023-09-07T14:16:58;2.78;;;2.33;;
1829;SDS011;914;48.118;11.600;2023-09-07T14:19:25;2.40;;;2.20;;
1829;SDS011;914;48.118;11.600;2023-09-07T14:21:56;2.67;;;2.30;;
1829;SDS011;914;48.118;11.600;2023-09-07T14:24:23;2.63;;;2.42;;
1829;SDS011;914;48.118;11.600;2023-09-07T14:26:49;2.30;;;2.10;;
1829;SDS011;914;48.118;11.600;2023-09-07T14:29:14;2.60;;;2.40;;
1829;SDS011;914;48.118;11.600;2023-09-07T14:31:40;2.58;;;2.38;;
1829;SDS011;914;48.118;11.600;2023-09-07T14:34:07;2.88;;;2.40;;
1829;SDS011;914;48.118;11.600;2023-09-07T14:36:33;2.90;;;2.22;;
1829;SDS011;914;48.118;11.600;2023-09-07T14:38:59;3.13;;;2.20;;
1829;SDS011;914;48.118;11.600;2023-09-07T14:41:25;4.50;;;2.55;;
1829;SDS011;914;48.118;11.600;2023-09-07T14:43:53;2.45;;;2.22;;
1829;SDS011;914;48.118;11.600;2023-09-07T14:46:18;4.35;;;2.60;;
1829;SDS011;914;48.118;11.600;2023-09-07T14:48:44;2.88;;;2.30;;
1829;SDS011;914;48.118;11.600;2023-09-07T14:51:12;3.10;;;2.55;;
1829;SDS011;914;48.118;11.600;2023-09-07T14:53:38;2.45;;;2.25;;
1829;SDS011;914;48.118;11.600;2023-09-07T14:56:04;2.47;;;2.28;;
1829;SDS011;914;48.118;11.600;2023-09-07T14:58:29;2.03;;;1.92;;
1829;SDS011;914;48.118;11.600;2023-09-07T15:00:55;3.35;;;2.47;;
1829;SDS011;914;48.118;11.600;2023-09-07T15:03:20;2.35;;;2.15;;
1829;SDS011;914;48.118;11.600;2023-09-07T15:05:46;3.60;;;2.17;;
1829;SDS011;914;48.118;11.600;2023-09-07T15:08:12;2.60;;;2.40;;
1829;SDS011;914;48.118;11.600;2023-09-07T15:10:37;2.50;;;2.30;;
1829;SDS011;914;48.118;11.600;2023-09-07T15:13:03;2.05;;;1.85;;
1829;SDS011;914;48.118;11.600;2023-09-07T15:15:30;2.30;;;2.10;;